Time;durP1;ratioP1;P1;durP2;ratioP2;P2;SDS_P1;SDS_P2;PMS_P1;PMS_P2;Temp;Humidity;BMP_temperature;BMP_pressure;BME280_temperature;BME280_humidity;BME280_pressure;Samples;Min_cycle;Max_cycle;Signal;HPM_P1;HPM_P2
2021/09/07 00:01:24;;;;;;;13.15;11.30;;;15.20;74.40;;;14.12;73.68;96729.41;4958550;28;20046;-64
2021/09/07 00:03:49;;;;;;;13.68;11.13;;;15.00;74.50;;;14.07;74.93;96725.53;4979354;28;20082;-65
2021/09/07 00:06:17;;;;;;;14.98;11.70;;;15.10;74.60;;;14.03;73.64;96712.88;4968689;28;20050;-64
2021/09/07 00:08:44;;;;;;;13.73;11.13;;;15.00;74.70;;;14.01;74.60;96728.94;4968416;28;20043;-65
2021/09/07 00:11:10;;;;;;;16.90;11.82;;;15.00;74.70;;;13.99;74.97;96715.09;4952888;28;20430;-65
2021/09/07 00:13:35;;;;;;;13.52;10.82;;;15.00;74.70;;;13.97;73.74;96717.13;4952111;28;20035;-64
2021/09/07 00:16:01;;;;;;;13.48;11.45;;;14.90;74.70;;;13.94;74.26;96717.50;4960676;28;20519;-64
2021/09/07 00:18:28;;;;;;;14.00;11.38;;;14.90;74.90;;;13.93;74.86;96715.06;4934954;28;20031;-64
2021/09/07 00:20:53;;;;;;;13.35;11.20;;;14.90;74.80;;;13.89;74.89;96703.25;4952473;28;20398;-64
2021/09/07 00:23:19;;;;;;;14.88;11.68;;;14.90;74.70;;;13.85;73.85;96705.47;4968171;28;20046;-64
2021/09/07 00:25:45;;;;;;;12.07;10.13;;;14.90;74.60;;;13.82;74.31;96697.09;4955158;28;20042;-64
2021/09/07 00:28:11;;;;;;;14.70;10.15;;;14.80;74.40;;;13.80;74.25;96710.50;4952525;28;20134;-64
2021/09/07 00:30:36;;;;;;;13.70;10.15;;;14.80;74.40;;;13.78;74.68;96707.22;4948695;28;20123;-64
2021/09/07 00:33:04;;;;;;;13.23;9.63;;;14.80;74.40;;;13.79;74.85;96708.84;4931377;28;20114;-64
2021/09/07 00:35:29;;;;;;;11.63;9.60;;;14.80;74.40;;;13.78;74.42;96707.22;4967339;28;20043;-64
2021/09/07 00:37:55;;;;;;;10.70;9.07;;;14.80;74.30;;;13.75;73.82;96708.44;4967148;28;20458;-64
2021/09/07 00:40:21;;;;;;;12.20;9.48;;;14.80;74.40;;;13.73;74.10;96707.00;4952365;28;20146;-64
2021/09/07 00:42:46;;;;;;;13.55;10.02;;;14.70;74.60;;;13.71;74.68;96701.09;4966321;28;20066;-64
2021/09/07 00:45:12;;;;;;;11.88;9.68;;;14.70;74.70;;;13.66;73.95;96699.03;4968735;28;20057;-64
2021/09/07 00:47:40;;;;;;;13.35;10.65;;;14.70;74.60;;;13.63;74.70;96701.25;4951606;28;20391;-64
2021/09/07 00:50:06;;;;;;;12.30;10.70;;;14.60;74.70;;;13.59;75.19;96703.47;4952745;28;20237;-64
2021/09/07 00:52:31;;;;;;;12.27;10.25;;;14.60;74.70;;;13.56;74.99;96695.06;4966986;28;20042;-65
2021/09/07 00:54:57;;;;;;;13.65;10.15;;;14.60;74.80;;;13.52;75.44;96702.59;4949593;28;20035;-64
2021/09/07 00:57:23;;;;;;;13.23;10.85;;;14.50;74.90;;;13.48;74.22;96694.22;4935017;28;20062;-64
2021/09/07 00:59:50;;;;;;;15.32;11.98;;;14.50;74.90;;;13.48;75.36;96690.75;4964280;28;20453;-65
2021/09/07 01:02:16;;;;;;;12.80;10.75;;;14.50;75.00;;;13.44;74.32;96695.63;4955901;28;20367;-64
2021/09/07 01:04:42;;;;;;;13.57;9.82;;;14.50;74.80;;;13.44;74.43;96695.63;4956163;28;20046;-65
2021/09/07 01:07:08;;;;;;;15.35;10.93;;;14.50;74.80;;;13.43;75.27;96701.09;4971200;28;20117;-64
2021/09/07 01:09:35;;;;;;;13.93;10.40;;;14.50;74.80;;;13.39;74.98;96692.75;4966819;28;20039;-65
2021/09/07 01:12:01;;;;;;;12.50;10.18;;;14.40;74.80;;;13.34;74.78;96697.75;4956506;28;20096;-64
2021/09/07 01:14:38;;;;;;;13.70;10.60;;;14.30;75.20;;;13.31;75.90;96700.78;4954367;28;20037;-65
2021/09/07 01:17:16;;;;;;;12.32;10.05;;;14.30;75.30;;;13.29;76.03;96691.44;4945702;29;20590;-65
2021/09/07 01:19:42;;;;;;;14.95;10.93;;;14.30;75.30;;;13.28;74.99;96693.25;4963660;28;20026;-65
2021/09/07 01:22:09;;;;;;;13.93;9.38;;;14.30;75.30;;;13.29;75.08;96696.72;4968767;28;20053;-64
2021/09/07 01:24:35;;;;;;;13.40;9.93;;;14.30;75.10;;;13.26;75.19;96692.63;4936073;28;20240;-64
2021/09/07 01:27:05;;;;;;;10.90;9.27;;;14.20;75.20;;;13.25;75.47;96687.53;4937278;28;20035;-64
2021/09/07 01:29:34;;;;;;;12.07;10.18;;;14.30;75.50;;;13.23;75.59;96685.09;4952155;28;20036;-64
2021/09/07 01:32:02;;;;;;;12.23;10.15;;;14.30;75.60;;;13.22;76.42;96680.81;4947777;28;20043;-64
2021/09/07 01:34:28;;;;;;;12.52;10.23;;;14.30;76.10;;;13.22;76.40;96680.00;4952416;28;20194;-64
2021/09/07 01:36:54;;;;;;;11.38;9.40;;;14.30;76.10;;;13.20;76.82;96682.84;4956419;28;20039;-65
2021/09/07 01:39:19;;;;;;;11.52;9.48;;;14.30;75.90;;;13.19;76.19;96683.84;4926495;28;20102;-64
2021/09/07 01:41:45;;;;;;;13.10;10.32;;;14.20;76.00;;;13.16;76.91;96682.38;4958698;28;20039;-64
2021/09/07 01:44:11;;;;;;;11.05;9.63;;;14.20;76.10;;;13.17;76.97;96683.19;4949145;28;20027;-64
2021/09/07 01:46:37;;;;;;;14.73;10.50;;;14.20;76.10;;;13.20;77.08;96685.47;4954786;28;20441;-65
2021/09/07 01:49:03;;;;;;;11.10;9.68;;;14.30;76.00;;;13.20;76.02;96689.94;4946418;28;20038;-64
2021/09/07 01:51:28;;;;;;;11.40;9.82;;;14.30;75.80;;;13.18;75.92;96682.22;4955200;28;20500;-64
2021/09/07 01:53:54;;;;;;;14.95;10.20;;;14.30;75.70;;;13.18;76.88;96695.41;4952923;28;20169;-64
2021/09/07 01:56:20;;;;;;;12.00;10.25;;;14.30;75.90;;;13.15;77.08;96695.78;4971633;28;20035;-64
2021/09/07 01:58:45;;;;;;;10.18;8.52;;;14.20;76.20;;;13.13;76.74;96688.03;4945829;28;20548;-64
2021/09/07 02:01:11;;;;;;;13.63;10.10;;;14.30;76.30;;;13.13;76.66;96690.69;4967627;28;20953;-64
2021/09/07 02:03:37;;;;;;;15.55;10.35;;;14.20;76.50;;;13.12;77.26;96691.66;4941323;29;20478;-64
2021/09/07 02:06:03;;;;;;;12.15;10.70;;;14.20;76.70;;;13.12;77.57;96690.84;4969657;28;20048;-64
2021/09/07 02:08:28;;;;;;;15.68;11.98;;;14.20;76.90;;;13.11;77.33;96689.22;4951202;28;20531;-65
2021/09/07 02:10:54;;;;;;;17.63;12.20;;;14.20;77.30;;;13.10;77.92;96692.84;4956119;28;20075;-64
2021/09/07 02:13:20;;;;;;;13.30;11.55;;;14.20;77.30;;;13.10;77.56;96692.84;4955523;28;20031;-64
2021/09/07 02:15:46;;;;;;;14.70;12.15;;;14.20;77.40;;;13.08;78.06;96686.94;4950369;28;20461;-64
2021/09/07 02:18:11;;;;;;;14.32;12.00;;;14.20;77.30;;;13.09;77.77;96696.50;4945039;28;20548;-65
2021/09/07 02:20:37;;;;;;;13.73;12.10;;;14.20;77.30;;;13.07;78.69;96688.78;4946542;28;20510;-65
2021/09/07 02:23:06;;;;;;;13.43;11.60;;;14.20;77.20;;;13.05;78.79;96690.78;4948874;28;20035;-64
2021/09/07 02:25:33;;;;;;;14.15;11.52;;;14.20;77.40;;;13.05;78.64;96688.16;4955250;28;20510;-64
2021/09/07 02:27:59;;;;;;;12.95;11.52;;;14.20;77.50;;;13.08;78.17;96689.59;4954169;28;20062;-64
2021/09/07 02:30:25;;;;;;;13.52;11.55;;;14.20;77.50;;;13.06;78.36;96673.13;4970867;28;20047;-64
2021/09/07 02:32:51;;;;;;;15.40;12.45;;;14.20;77.50;;;13.07;78.08;96670.28;4970259;28;20062;-63
2021/09/07 02:35:17;;;;;;;15.77;12.73;;;14.20;77.50;;;13.06;78.17;96673.94;4948014;28;20061;-64
2021/09/07 02:37:42;;;;;;;13.05;11.65;;;14.20;77.40;;;13.05;78.84;96674.94;4950461;28;20058;-64
2021/09/07 02:40:09;;;;;;;15.32;11.98;;;14.10;77.30;;;13.04;78.79;96675.13;4960205;28;20070;-66
2021/09/07 02:42:35;;;;;;;16.05;12.13;;;14.20;77.30;;;13.05;78.94;96684.69;4953343;28;20047;-65
2021/09/07 02:45:00;;;;;;;13.63;11.68;;;14.20;77.10;;;13.04;78.68;96680.41;4937997;28;20062;-67
2021/09/07 02:47:26;;;;;;;13.98;11.52;;;14.20;77.10;;;13.02;78.66;96679.78;4970241;28;20163;-65
2021/09/07 02:49:52;;;;;;;13.32;11.25;;;14.20;76.90;;;13.00;78.19;96681.81;4947189;28;20069;-66
2021/09/07 02:52:18;;;;;;;16.70;12.77;;;14.10;77.00;;;12.98;78.68;96673.25;4970190;28;20043;-65
2021/09/07 02:54:43;;;;;;;15.05;13.45;;;14.10;77.10;;;12.93;78.02;96670.38;4970806;28;20123;-65
2021/09/07 02:57:09;;;;;;;15.23;11.98;;;14.10;77.30;;;12.87;78.78;96662.19;4954112;28;20039;-65
2021/09/07 02:59:35;;;;;;;15.43;13.10;;;14.00;77.40;;;12.82;78.51;96661.94;4937951;28;20067;-65
2021/09/07 03:02:01;;;;;;;15.48;12.68;;;13.90;77.60;;;12.80;78.83;96660.50;4937242;28;20371;-66
2021/09/07 03:04:26;;;;;;;14.77;12.73;;;13.90;77.80;;;12.80;78.95;96653.41;4970152;28;20510;-65
2021/09/07 03:06:52;;;;;;;17.17;13.38;;;14.00;77.80;;;12.81;79.22;96662.94;4953733;28;20510;-66
2021/09/07 03:09:18;;;;;;;14.52;12.93;;;14.00;77.70;;;12.82;78.65;96667.22;4970556;28;20057;-66
2021/09/07 03:11:43;;;;;;;15.85;13.05;;;13.90;77.70;;;12.81;79.11;96668.22;4957868;28;20035;-65
2021/09/07 03:14:09;;;;;;;14.27;12.50;;;13.90;77.50;;;12.78;78.89;96668.63;4966459;28;20117;-66
2021/09/07 03:16:35;;;;;;;18.48;13.57;;;13.90;77.30;;;12.74;78.50;96672.63;4958851;28;20058;-66
2021/09/07 03:19:02;;;;;;;15.02;12.70;;;13.90;77.20;;;12.73;78.82;96678.94;4979442;28;20521;-65
2021/09/07 03:21:28;;;;;;;18.00;12.82;;;13.80;77.20;;;12.71;78.54;96672.19;4954014;28;20058;-66
2021/09/07 03:23:54;;;;;;;13.60;12.20;;;13.80;77.30;;;12.67;78.73;96670.91;4968473;28;20050;-65
2021/09/07 03:26:20;;;;;;;16.10;13.25;;;13.80;77.40;;;12.63;78.93;96670.47;4945244;28;20042;-66
2021/09/07 03:28:46;;;;;;;41.25;34.95;;;13.80;77.40;;;12.59;79.02;96671.88;4952908;28;20038;-66
2021/09/07 03:31:12;;;;;;;22.33;18.30;;;13.70;77.70;;;12.54;78.86;96672.44;4953982;28;20042;-66
2021/09/07 03:33:37;;;;;;;17.85;14.52;;;13.70;77.30;;;12.53;78.20;96669.97;4950100;28;20034;-66
2021/09/07 03:36:04;;;;;;;11.45;9.82;;;13.70;76.90;;;12.50;78.82;96679.09;4948449;28;20050;-66
2021/09/07 03:38:31;;;;;;;10.95;9.75;;;13.60;76.30;;;12.45;77.48;96678.03;4967300;28;20405;-66
2021/09/07 03:40:57;;;;;;;12.15;8.50;;;13.50;76.50;;;12.39;78.54;96673.47;4943586;28;20061;-66
2021/09/07 03:43:22;;;;;;;12.43;9.00;;;13.50;76.60;;;12.29;77.64;96676.41;4938433;28;20067;-65
2021/09/07 03:45:48;;;;;;;10.55;7.95;;;13.40;76.70;;;12.25;78.37;96672.53;4966170;28;20061;-64
2021/09/07 03:48:14;;;;;;;8.80;7.90;;;13.30;76.80;;;12.20;78.18;96675.69;4953078;28;20066;-67
2021/09/07 03:50:40;;;;;;;10.80;7.72;;;13.30;76.80;;;12.17;78.60;96676.06;4954755;28;20059;-66
2021/09/07 03:53:06;;;;;;;11.93;8.50;;;13.30;76.70;;;12.16;78.21;96674.44;4952627;28;20118;-67
2021/09/07 03:55:31;;;;;;;9.05;7.05;;;13.30;76.70;;;12.12;78.01;96669.72;4953942;28;20027;-67
2021/09/07 03:57:57;;;;;;;10.40;7.38;;;13.20;76.80;;;12.07;78.26;96672.91;4953616;28;20126;-67
2021/09/07 04:00:23;;;;;;;8.50;7.30;;;13.20;76.80;;;12.03;78.03;96679.56;4971013;28;20031;-66
2021/09/07 04:02:49;;;;;;;11.10;8.05;;;13.20;76.70;;;12.03;78.43;96676.09;4952841;28;20118;-67
2021/09/07 04:05:14;;;;;;;10.18;8.20;;;13.10;76.60;;;11.99;77.99;96678.25;4953820;28;20042;-67
2021/09/07 04:07:40;;;;;;;11.50;8.25;;;13.10;76.80;;;11.99;78.41;96675.63;4969180;28;20123;-67
2021/09/07 04:10:07;;;;;;;10.77;8.52;;;13.10;77.00;;;11.96;78.28;96670.72;4952061;28;20043;-67
2021/09/07 04:12:33;;;;;;;11.15;8.52;;;13.10;77.10;;;11.96;78.13;96673.34;4969185;28;20426;-66
2021/09/07 04:14:58;;;;;;;10.32;8.82;;;13.10;77.20;;;11.95;78.01;96662.00;4953654;28;20030;-67
2021/09/07 04:17:24;;;;;;;10.40;8.70;;;13.10;77.20;;;11.97;78.96;96680.25;4953869;28;20030;-67
2021/09/07 04:19:50;;;;;;;12.50;9.25;;;13.10;77.30;;;11.95;79.10;96671.72;4971057;28;20057;-67
2021/09/07 04:22:15;;;;;;;13.82;9.38;;;13.10;77.70;;;11.94;78.77;96676.19;4966718;28;20074;-67
2021/09/07 04:24:41;;;;;;;12.13;9.80;;;13.10;77.60;;;11.95;79.68;96674.38;4940368;28;20030;-67
2021/09/07 04:27:07;;;;;;;11.05;8.25;;;13.20;77.50;;;11.93;79.01;96676.38;4953404;28;20386;-67
2021/09/07 04:29:33;;;;;;;11.32;8.60;;;13.10;77.10;;;11.93;78.59;96679.00;4953661;28;20562;-66
2021/09/07 04:31:58;;;;;;;10.50;8.75;;;13.10;77.00;;;11.92;78.72;96686.09;4968997;28;20045;-66
2021/09/07 04:34:24;;;;;;;11.07;8.77;;;13.10;77.20;;;11.90;79.28;96684.63;4954589;28;20132;-67
2021/09/07 04:36:50;;;;;;;12.07;9.95;;;13.10;77.30;;;11.87;78.91;96679.75;4968846;28;20026;-66
2021/09/07 04:39:15;;;;;;;11.75;9.65;;;13.10;77.50;;;11.86;78.80;96678.09;4969880;28;20034;-67
2021/09/07 04:41:41;;;;;;;10.77;9.23;;;13.10;77.60;;;11.88;79.28;96681.38;4981357;28;20074;-66
2021/09/07 04:44:07;;;;;;;14.70;9.68;;;13.10;77.60;;;11.88;79.71;96665.56;4957150;28;20046;-67
2021/09/07 04:46:33;;;;;;;12.82;11.18;;;13.10;77.90;;;11.90;79.80;96674.91;4953376;28;20046;-67
2021/09/07 04:48:58;;;;;;;12.52;10.68;;;13.10;77.90;;;11.88;79.74;96666.38;4938284;29;20087;-67
2021/09/07 04:51:24;;;;;;;12.68;10.27;;;13.10;77.90;;;11.90;80.08;96684.63;4964168;28;20105;-66
2021/09/07 04:53:50;;;;;;;11.82;10.60;;;13.10;77.90;;;11.90;79.98;96687.28;4956981;28;20035;-66
2021/09/07 04:56:18;;;;;;;12.13;10.60;;;13.10;78.40;;;11.91;80.57;96688.91;4957130;28;20492;-66
2021/09/07 04:58:44;;;;;;;14.65;11.40;;;13.10;78.60;;;11.89;79.68;96686.47;4941131;28;20058;-66
2021/09/07 05:01:10;;;;;;;15.13;11.10;;;13.20;78.50;;;11.91;79.94;96691.56;4973033;28;20093;-67
2021/09/07 05:03:36;;;;;;;14.82;11.23;;;13.10;78.60;;;11.92;80.41;96690.53;4953154;28;20047;-67
2021/09/07 05:06:01;;;;;;;15.43;10.68;;;13.10;78.80;;;11.95;80.89;96690.19;4969433;28;20039;-67
2021/09/07 05:08:27;;;;;;;12.55;10.55;;;13.30;78.80;;;11.99;80.93;96683.53;4937880;29;20059;-67
2021/09/07 05:10:53;;;;;;;12.52;11.00;;;13.30;78.70;;;12.05;80.56;96703.09;4952580;28;21483;-66
2021/09/07 05:13:19;;;;;;;12.90;10.85;;;13.40;78.60;;;12.07;80.61;96690.53;4953237;28;20035;-66
2021/09/07 05:15:45;;;;;;;13.00;10.77;;;13.40;78.40;;;12.13;81.17;96701.16;4937603;29;20051;-67
2021/09/07 05:18:10;;;;;;;12.75;10.73;;;13.40;78.50;;;12.14;80.84;96697.53;4946823;28;20069;-66
2021/09/07 05:20:36;;;;;;;13.40;10.82;;;13.50;78.50;;;12.18;79.98;96693.53;4972354;28;20132;-67
2021/09/07 05:23:02;;;;;;;14.30;11.57;;;13.50;78.00;;;12.19;80.96;96699.59;4972250;28;20038;-66
2021/09/07 05:25:29;;;;;;;18.48;11.60;;;13.60;78.00;;;12.22;80.71;96694.81;4971979;28;20522;-66
2021/09/07 05:27:55;;;;;;;13.63;10.80;;;13.60;77.90;;;12.27;80.40;96697.72;4956565;28;20051;-67
2021/09/07 05:30:21;;;;;;;12.95;10.82;;;13.70;77.70;;;12.32;80.45;96704.25;4972547;28;20035;-66
2021/09/07 05:32:47;;;;;;;13.98;11.52;;;13.70;77.60;;;12.37;80.75;96712.41;4942430;28;20027;-67
2021/09/07 05:35:12;;;;;;;14.75;11.45;;;13.70;77.40;;;12.40;80.17;96717.31;4957471;28;20081;-67
2021/09/07 05:37:39;;;;;;;13.55;11.07;;;13.70;77.40;;;12.42;79.97;96713.50;4940015;28;20057;-66
2021/09/07 05:40:07;;;;;;;13.65;11.88;;;13.80;77.50;;;12.47;81.26;96719.06;4956213;28;20050;-67
2021/09/07 05:42:33;;;;;;;16.90;13.07;;;13.90;77.30;;;12.51;81.02;96714.22;4987818;28;20113;-66
2021/09/07 05:44:58;;;;;;;47.92;40.35;;;13.90;78.30;;;12.58;81.37;96718.56;4972126;28;20439;-66
2021/09/07 05:47:24;;;;;;;47.47;38.35;;;14.10;78.60;;;12.65;81.66;96715.97;4938605;28;20664;-67
2021/09/07 05:49:50;;;;;;;27.45;23.02;;;14.20;78.20;;;12.73;81.25;96713.25;4948148;28;20043;-66
2021/09/07 05:52:15;;;;;;;19.75;16.40;;;14.20;77.10;;;12.80;81.40;96722.03;4962295;28;20047;-66
2021/09/07 05:54:41;;;;;;;24.08;19.90;;;14.30;77.40;;;12.84;80.98;96718.00;4939739;28;20049;-67
2021/09/07 05:57:07;;;;;;;18.67;15.88;;;14.40;77.10;;;12.91;80.49;96719.94;4939775;28;20499;-66
2021/09/07 05:59:33;;;;;;;15.20;13.02;;;14.50;76.40;;;12.98;80.85;96726.09;4972192;28;20034;-66
2021/09/07 06:01:58;;;;;;;14.35;10.75;;;14.60;76.10;;;13.07;80.74;96728.41;4971468;28;20035;-67
2021/09/07 06:04:24;;;;;;;28.13;23.65;;;14.70;75.90;;;13.14;80.75;96720.56;4952662;28;20067;-67
2021/09/07 06:06:51;;;;;;;42.58;34.80;;;14.80;76.00;;;13.25;80.62;96717.41;4937121;28;20043;-67
2021/09/07 06:09:17;;;;;;;29.27;22.45;;;15.00;75.50;;;13.34;79.63;96712.81;4952829;28;20028;-67
2021/09/07 06:11:43;;;;;;;17.67;15.00;;;15.10;75.10;;;13.42;80.31;96712.69;4952228;28;20041;-66
2021/09/07 06:14:09;;;;;;;18.65;14.65;;;15.10;74.70;;;13.50;79.66;96715.16;4952365;28;20180;-68
2021/09/07 06:16:35;;;;;;;45.05;34.80;;;15.20;74.90;;;13.60;80.67;96722.78;4951906;28;20035;-67
2021/09/07 06:19:00;;;;;;;26.98;20.73;;;15.30;74.90;;;13.68;79.69;96720.81;4952235;28;20031;-67
2021/09/07 06:21:26;;;;;;;22.15;19.00;;;15.50;74.90;;;13.82;79.01;96734.94;4968484;28;20050;-67
2021/09/07 06:23:52;;;;;;;16.92;12.80;;;15.60;74.40;;;13.95;79.75;96735.00;4955231;28;20553;-67
2021/09/07 06:26:18;;;;;;;14.00;12.02;;;15.80;74.00;;;14.07;79.91;96732.66;4955454;28;20030;-67
2021/09/07 06:28:45;;;;;;;13.07;11.50;;;15.90;73.50;;;14.19;79.53;96738.19;4955115;28;20118;-67
2021/09/07 06:31:11;;;;;;;15.77;11.82;;;16.00;73.40;;;14.27;79.01;96738.03;4972546;28;20050;-67
2021/09/07 06:33:36;;;;;;;13.13;11.52;;;16.10;72.80;;;14.36;78.62;96732.38;4969989;28;20031;-67
2021/09/07 06:36:02;;;;;;;13.70;12.25;;;16.20;72.80;;;14.48;77.84;96729.19;4956785;28;20568;-67
2021/09/07 06:38:28;;;;;;;14.02;11.65;;;16.30;71.90;;;14.56;78.87;96732.50;4943670;28;20146;-67
2021/09/07 06:40:54;;;;;;;13.57;10.30;;;16.40;71.90;;;14.63;77.69;96733.31;4952031;28;20031;-67
2021/09/07 06:43:20;;;;;;;12.90;10.15;;;16.50;71.50;;;14.72;78.15;96736.63;4967688;28;20047;-67
2021/09/07 06:45:45;;;;;;;14.10;10.98;;;16.60;71.70;;;14.83;77.26;96732.56;4967700;28;20027;-67
2021/09/07 06:48:13;;;;;;;13.70;10.85;;;16.60;70.30;;;14.86;76.32;96734.81;4951820;28;20074;-67
2021/09/07 06:50:38;;;;;;;13.25;11.45;;;16.60;69.90;;;14.94;76.12;96729.34;4951382;28;20082;-67
2021/09/07 06:53:04;;;;;;;13.52;10.52;;;16.80;70.10;;;15.02;75.21;96731.81;4951416;28;20035;-67
2021/09/07 06:55:30;;;;;;;13.18;10.20;;;16.90;69.20;;;15.11;76.26;96735.88;4951642;28;20102;-67
2021/09/07 06:57:56;;;;;;;16.38;10.65;;;17.00;69.70;;;15.21;76.57;96741.63;4951342;28;20039;-66
2021/09/07 07:00:23;;;;;;;12.52;10.55;;;17.10;69.50;;;15.30;75.76;96743.06;4935622;29;20526;-67
2021/09/07 07:02:49;;;;;;;13.15;10.85;;;17.20;68.50;;;15.40;75.16;96741.84;4955419;28;20054;-68
2021/09/07 07:05:15;;;;;;;12.45;10.55;;;17.30;68.50;;;15.47;75.00;96740.00;4970601;28;20042;-67
2021/09/07 07:07:41;;;;;;;13.45;10.32;;;17.40;68.50;;;15.54;73.89;96740.81;4970628;28;20534;-67
2021/09/07 07:10:07;;;;;;;13.43;10.60;;;17.50;67.60;;;15.66;75.00;96739.22;4970729;28;20042;-67
2021/09/07 07:12:32;;;;;;;12.35;10.45;;;17.70;67.60;;;15.81;74.59;96747.75;4970061;28;20031;-67
2021/09/07 07:14:58;;;;;;;13.15;10.93;;;17.90;67.80;;;15.92;74.63;96741.03;4968964;28;20062;-67
2021/09/07 07:17:24;;;;;;;15.10;10.30;;;18.10;66.90;;;16.09;74.13;96744.06;4935154;28;20114;-67
2021/09/07 07:19:51;;;;;;;13.43;10.70;;;18.30;66.50;;;16.25;73.55;96743.59;4951183;28;20038;-67
2021/09/07 07:22:17;;;;;;;12.20;10.13;;;18.60;66.60;;;16.39;73.44;96744.38;4950888;28;20027;-67
2021/09/07 07:24:43;;;;;;;13.68;9.98;;;18.60;65.40;;;16.50;73.66;96755.16;4934904;28;20070;-67
2021/09/07 07:27:09;;;;;;;12.18;9.35;;;18.60;65.40;;;16.60;72.63;96744.09;4952102;28;20059;-67
2021/09/07 07:29:35;;;;;;;12.35;9.80;;;18.80;65.00;;;16.77;72.78;96747.13;4955899;28;20039;-67
2021/09/07 07:32:00;;;;;;;20.08;14.93;;;19.00;64.40;;;16.92;72.55;96747.66;4953708;28;20031;-67
2021/09/07 07:34:26;;;;;;;20.35;14.45;;;19.20;64.70;;;17.11;72.93;96744.06;4971717;28;20046;-67
2021/09/07 07:36:54;;;;;;;16.50;14.00;;;19.50;64.10;;;17.28;71.60;96739.06;4937332;28;20447;-67
2021/09/07 07:39:21;;;;;;;15.82;12.43;;;19.60;62.90;;;17.44;71.78;96743.03;4946476;28;20106;-67
2021/09/07 07:41:47;;;;;;;12.18;10.63;;;19.80;62.60;;;17.60;70.77;96741.66;4969654;28;20618;-67
2021/09/07 07:44:12;;;;;;;14.50;10.32;;;20.20;61.90;;;17.82;70.85;96737.63;4966047;28;20118;-67
2021/09/07 07:46:38;;;;;;;12.30;9.98;;;20.50;60.60;;;18.03;70.24;96737.22;4950362;28;20058;-67
2021/09/07 07:49:04;;;;;;;13.57;10.88;;;20.80;60.20;;;18.25;69.57;96740.25;4934753;29;20043;-67
2021/09/07 07:51:30;;;;;;;12.63;10.07;;;21.10;58.80;;;18.45;69.61;96734.72;4950616;28;20114;-67
2021/09/07 07:53:56;;;;;;;14.65;9.65;;;21.30;57.90;;;18.69;69.09;96730.34;4918638;29;20110;-67
2021/09/07 07:56:22;;;;;;;11.15;9.95;;;21.70;56.50;;;18.92;68.96;96729.66;4934585;29;20083;-67
2021/09/07 07:58:47;;;;;;;13.43;10.23;;;21.80;56.60;;;19.07;67.87;96738.06;4942050;28;20039;-67
2021/09/07 08:01:13;;;;;;;13.15;10.02;;;21.80;57.10;;;19.25;68.08;96734.53;4969751;28;20386;-67
2021/09/07 08:03:44;;;;;;;12.73;10.20;;;22.20;55.90;;;19.49;67.78;96741.53;4953529;28;20518;-67
2021/09/07 08:06:10;;;;;;;15.80;10.20;;;22.60;55.30;;;19.78;66.51;96749.72;4955724;28;20667;-67
2021/09/07 08:08:36;;;;;;;11.18;9.55;;;23.00;54.00;;;20.04;66.13;96740.44;4967525;28;20057;-68
2021/09/07 08:11:02;;;;;;;12.98;9.45;;;23.30;53.30;;;20.29;64.93;96734.84;4969418;28;20031;-67
2021/09/07 08:13:27;;;;;;;13.55;10.60;;;23.50;52.70;;;20.53;65.41;96741.78;4959761;28;20067;-67
2021/09/07 08:15:53;;;;;;;10.77;9.30;;;23.80;52.50;;;20.77;64.01;96732.66;4950183;28;20028;-67
2021/09/07 08:18:19;;;;;;;13.55;11.30;;;24.00;51.60;;;20.95;63.80;96736.22;4950645;28;20128;-67
2021/09/07 08:20:45;;;;;;;12.57;10.35;;;24.00;51.00;;;21.10;64.30;96737.31;4954716;28;20039;-67
2021/09/07 08:23:10;;;;;;;11.95;9.75;;;24.20;51.60;;;21.33;63.09;96739.09;4953241;28;20035;-67
2021/09/07 08:25:36;;;;;;;11.60;9.60;;;24.50;51.00;;;21.52;62.36;96730.84;4953486;28;20136;-67
2021/09/07 08:28:02;;;;;;;12.75;9.48;;;24.60;49.10;;;21.75;61.54;96735.22;4953599;28;20506;-67
2021/09/07 08:30:28;;;;;;;11.52;9.15;;;24.90;48.90;;;21.99;61.21;96729.44;4937478;28;20039;-67
2021/09/07 08:32:54;;;;;;;10.98;8.75;;;25.10;49.20;;;22.25;61.03;96727.16;4952719;28;20038;-67
2021/09/07 08:35:19;;;;;;;10.25;8.55;;;25.30;48.10;;;22.47;60.38;96722.63;4962771;28;20051;-67
2021/09/07 08:37:45;;;;;;;9.93;8.65;;;25.60;47.60;;;22.71;59.73;96735.78;4966133;28;20058;-67
2021/09/07 08:40:11;;;;;;;13.35;9.00;;;25.80;46.70;;;22.92;58.60;96725.06;4906457;29;20098;-67
2021/09/07 08:42:37;;;;;;;10.95;9.68;;;26.00;45.80;;;23.10;58.45;96728.47;4949555;28;20039;-67
2021/09/07 08:45:04;;;;;;;11.77;9.07;;;25.80;46.90;;;23.28;58.65;96735.34;4934136;29;20035;-67
2021/09/07 08:47:30;;;;;;;11.40;8.75;;;26.00;46.90;;;23.50;57.91;96736.88;4918760;29;20027;-67
2021/09/07 08:49:56;;;;;;;12.38;9.25;;;26.40;46.50;;;23.78;57.05;96735.81;4941950;28;20495;-67
2021/09/07 08:52:24;;;;;;;10.98;8.50;;;26.70;44.80;;;24.03;56.75;96742.44;4969274;28;20034;-67
2021/09/07 08:54:50;;;;;;;10.45;8.63;;;27.10;44.40;;;24.14;56.51;96741.44;4953142;28;20157;-67
2021/09/07 08:57:16;;;;;;;12.25;9.35;;;26.80;44.90;;;24.40;55.61;96737.03;4969145;28;20039;-67
2021/09/07 08:59:42;;;;;;;12.82;9.27;;;27.20;43.60;;;24.65;55.08;96739.03;4969228;28;20046;-67
2021/09/07 09:02:27;;;;;;;11.05;7.45;;;27.50;44.20;;;25.01;51.26;96731.94;4968861;28;20045;-67
2021/09/07 09:04:54;;;;;;;9.23;7.15;;;27.90;42.60;;;25.31;53.83;96732.00;4949562;28;20047;-67
2021/09/07 09:07:28;;;;;;;11.60;6.72;;;28.30;41.90;;;25.70;49.79;96723.44;4950116;28;20414;-67
2021/09/07 09:09:55;;;;;;;10.88;7.43;;;28.70;40.30;;;26.04;51.76;96730.97;4949369;28;20355;-67
2021/09/07 09:12:37;;;;;;;9.40;7.90;;;29.00;39.20;;;26.33;47.41;96733.88;4933905;29;20031;-67
2021/09/07 09:15:16;;;;;;;14.85;12.27;;;29.00;38.50;;;26.64;45.91;96729.22;4934843;28;20126;-67
2021/09/07 09:17:42;;;;;;;8.85;7.03;;;29.40;37.90;;;26.93;48.78;96740.13;4934089;29;20503;-68
2021/09/07 09:20:17;;;;;;;10.40;6.80;;;29.60;36.90;;;27.15;43.92;96740.59;4933913;28;20066;-67
2021/09/07 09:22:56;;;;;;;9.52;7.13;;;29.70;35.60;;;27.43;44.02;96739.91;4941812;28;20196;-68
2021/09/07 09:25:24;;;;;;;8.88;7.07;;;30.10;36.60;;;27.67;46.10;96744.63;4956664;28;20454;-67
2021/09/07 09:27:56;;;;;;;8.13;7.15;;;30.20;36.10;;;27.89;43.43;96744.19;4973732;28;20083;-67
2021/09/07 09:30:44;;;;;;;12.48;8.95;;;30.40;36.40;;;28.17;43.27;96746.06;4973865;28;20149;-67
2021/09/07 09:33:19;;;;;;;16.95;12.65;;;30.80;37.00;;;28.41;43.57;96748.81;4971951;28;20027;-67
2021/09/07 09:35:50;;;;;;;12.35;9.05;;;31.00;37.00;;;28.62;42.78;96744.81;4956564;28;20031;-67
2021/09/07 09:38:17;;;;;;;12.82;10.68;;;31.10;36.40;;;28.78;44.61;96744.63;4971868;28;20038;-67
2021/09/07 09:40:43;;;;;;;10.82;7.43;;;31.10;36.30;;;28.97;44.11;96742.81;4970395;28;20414;-67
2021/09/07 09:43:43;;;;;;;9.25;7.20;;;31.50;35.40;;;29.19;39.71;96734.88;4952281;29;20051;-67
2021/09/07 09:46:17;;;;;;;;;;;31.60;33.80;;;29.39;39.39;96735.69;4937890;28;20043;-68
2021/09/07 09:48:43;;;;;;;9.98;6.97;;;31.90;33.00;;;29.61;42.35;96733.22;4968206;28;19965;-67
2021/09/07 09:51:09;;;;;;;8.77;6.90;;;32.10;33.10;;;29.79;41.66;96735.09;4952690;28;20122;-68
2021/09/07 09:53:35;;;;;;;9.52;6.95;;;32.30;32.60;;;29.99;41.26;96725.00;4952047;28;20038;-67
2021/09/07 09:56:00;;;;;;;9.25;6.40;;;32.50;33.10;;;30.21;40.58;96727.91;4971839;28;20106;-67
2021/09/07 09:58:26;;;;;;;7.82;6.13;;;32.80;32.00;;;30.41;40.11;96716.66;4972118;28;20038;-67
2021/09/07 10:00:53;;;;;;;9.40;6.80;;;33.00;31.00;;;30.65;39.59;96712.97;4955383;28;20105;-67
2021/09/07 10:03:19;;;;;;;8.25;6.30;;;33.40;30.70;;;31.02;39.60;96714.63;4971797;28;20047;-68
2021/09/07 10:05:45;;;;;;;7.57;6.47;;;33.80;31.10;;;31.52;39.41;96720.88;4955677;28;20497;-68
2021/09/07 10:08:14;;;;;;;8.68;6.20;;;34.20;30.60;;;31.96;38.93;96711.09;4971685;28;20676;-68